createdAt,value
2018-10-11T00:00:02.290Z,11.76
2018-10-11T00:02:30.991Z,11.72
2018-10-11T00:04:59.654Z,11.68
2018-10-11T00:07:28.375Z,11.52
2018-10-11T00:09:57.089Z,11.36
2018-10-11T00:12:25.855Z,11.33
2018-10-11T00:14:54.516Z,11.21
2018-10-11T00:17:23.212Z,11.03
2018-10-11T00:19:51.873Z,10.79
2018-10-11T00:22:20.526Z,10.61
2018-10-11T00:24:50.114Z,10.50
2018-10-11T00:27:18.774Z,10.39
2018-10-11T00:29:47.511Z,10.44
2018-10-11T00:32:16.230Z,10.39
2018-10-11T00:34:44.947Z,10.30
2018-10-11T00:37:13.613Z,10.27
2018-10-11T00:39:42.258Z,10.35
2018-10-11T00:42:10.915Z,10.30
2018-10-11T00:44:39.641Z,10.30
2018-10-11T00:47:08.513Z,10.21
2018-10-11T00:49:37.259Z,10.22
2018-10-11T00:52:05.868Z,10.15
2018-10-11T00:54:34.524Z,10.19
2018-10-11T00:57:03.195Z,10.07
2018-10-11T00:59:31.857Z,10.05
2018-10-11T01:02:00.603Z,10.09
2018-10-11T01:04:29.258Z,10.03
2018-10-11T01:06:57.952Z,10.08
2018-10-11T01:09:26.721Z,10.08
2018-10-11T01:11:55.340Z,10.07
2018-10-11T01:14:24.025Z,9.93
2018-10-11T01:16:52.644Z,9.89
2018-10-11T01:19:21.253Z,9.84
2018-10-11T01:21:49.927Z,9.82
2018-10-11T01:24:18.512Z,9.77
2018-10-11T01:26:47.129Z,9.77
2018-10-11T01:29:15.774Z,9.82
2018-10-11T01:31:44.410Z,9.67
2018-10-11T01:34:13.080Z,9.70
2018-10-11T01:36:41.772Z,9.76
2018-10-11T01:39:10.525Z,9.78
2018-10-11T01:41:39.221Z,9.75
2018-10-11T01:44:07.941Z,9.77
2018-10-11T01:46:36.603Z,9.81
2018-10-11T01:49:05.320Z,9.83
2018-10-11T01:51:33.978Z,9.77
2018-10-11T01:54:02.569Z,9.88
2018-10-11T01:56:31.262Z,9.75
2018-10-11T01:58:59.900Z,9.85
2018-10-11T02:01:28.557Z,9.92
2018-10-11T02:03:57.226Z,9.93
2018-10-11T02:06:26.020Z,9.96
2018-10-11T02:08:54.616Z,10.02
2018-10-11T02:11:23.311Z,10.04
2018-10-11T02:13:51.994Z,10.03
2018-10-11T02:16:20.640Z,9.91
2018-10-11T02:18:49.308Z,9.85
2018-10-11T02:21:17.956Z,9.80
2018-10-11T02:23:46.565Z,9.75
2018-10-11T02:26:15.525Z,9.70
2018-10-11T02:28:44.244Z,9.65
2018-10-11T02:31:12.878Z,9.58
2018-10-11T02:33:41.493Z,9.55
2018-10-11T02:36:10.170Z,9.47
2018-10-11T02:38:38.819Z,9.46
2018-10-11T02:41:07.461Z,9.39
2018-10-11T02:43:36.104Z,9.27
2018-10-11T02:46:04.774Z,9.31
2018-10-11T02:48:33.522Z,9.14
2018-10-11T02:51:02.222Z,9.12
2018-10-11T02:53:30.913Z,9.09
2018-10-11T02:55:59.596Z,9.06
2018-10-11T02:58:39.445Z,9.03
2018-10-11T03:01:08.539Z,9.11
2018-10-11T03:03:37.328Z,9.11
2018-10-11T03:06:06.120Z,9.14
2018-10-11T03:08:35.174Z,9.12
2018-10-11T03:11:03.938Z,9.07
2018-10-11T03:13:32.752Z,8.90
2018-10-11T03:16:01.400Z,8.85
2018-10-11T03:18:30.132Z,8.82
2018-10-11T03:20:58.822Z,8.71
2018-10-11T03:23:27.476Z,8.92
2018-10-11T03:25:56.099Z,9.01
2018-10-11T03:28:24.830Z,9.13
2018-10-11T03:30:53.451Z,9.17
2018-10-11T03:33:22.113Z,9.05
2018-10-11T03:35:50.736Z,9.05
2018-10-11T03:38:19.409Z,9.12
2018-10-11T03:40:48.066Z,9.01
2018-10-11T03:43:16.690Z,8.85
2018-10-11T03:45:45.428Z,8.85
2018-10-11T03:48:14.087Z,8.87
2018-10-11T03:50:42.735Z,8.93
2018-10-11T03:53:11.394Z,8.88
2018-10-11T03:55:39.973Z,8.82
2018-10-11T03:58:08.650Z,8.91
2018-10-11T04:00:37.405Z,8.83
2018-10-11T04:03:06.097Z,8.89
2018-10-11T04:07:43.662Z,8.90
2018-10-11T04:10:12.329Z,8.88
2018-10-11T04:12:41.015Z,8.86
2018-10-11T04:15:09.832Z,9.02
2018-10-11T04:17:38.422Z,8.79
2018-10-11T04:20:07.174Z,9.00
2018-10-11T04:22:35.837Z,9.12
2018-10-11T04:25:04.445Z,9.12
2018-10-11T04:27:33.097Z,9.12
2018-10-11T04:30:01.872Z,9.12
2018-10-11T04:32:30.626Z,9.11
2018-10-11T04:34:59.225Z,9.11
2018-10-11T04:37:27.869Z,9.05
2018-10-11T04:39:56.525Z,8.99
2018-10-11T04:42:25.196Z,9.11
2018-10-11T04:44:53.836Z,9.08
2018-10-11T04:47:22.469Z,9.19
2018-10-11T04:49:51.236Z,9.22
2018-10-11T04:52:19.869Z,9.35
2018-10-11T04:54:48.534Z,9.35
2018-10-11T04:57:17.277Z,9.30
2018-10-11T04:59:45.963Z,9.35
2018-10-11T05:02:14.651Z,9.46
2018-10-11T05:04:43.475Z,9.40
2018-10-11T05:07:12.541Z,9.48
2018-10-11T05:09:41.229Z,9.59
2018-10-11T05:12:09.979Z,9.60
2018-10-11T05:14:38.767Z,9.60
2018-10-11T05:17:07.534Z,9.67
2018-10-11T05:19:38.329Z,9.69
2018-10-11T05:22:07.043Z,9.74
2018-10-11T05:24:35.712Z,9.64
2018-10-11T05:27:04.484Z,9.61
2018-10-11T05:29:33.181Z,9.54
2018-10-11T05:32:01.941Z,9.61
2018-10-11T05:34:30.697Z,9.77
2018-10-11T05:36:59.339Z,9.83
2018-10-11T05:39:28.137Z,9.83
2018-10-11T05:41:56.883Z,9.87
2018-10-11T05:44:25.722Z,9.90
2018-10-11T05:46:54.422Z,9.94
2018-10-11T05:49:23.386Z,10.00
2018-10-11T05:51:52.208Z,10.08
2018-10-11T05:54:20.983Z,10.13
2018-10-11T05:56:50.622Z,10.16
2018-10-11T05:59:19.391Z,10.21
2018-10-11T06:01:48.172Z,10.27
2018-10-11T06:04:16.960Z,10.35
2018-10-11T06:06:47.217Z,10.37
2018-10-11T06:09:15.966Z,10.43
2018-10-11T06:11:45.462Z,10.50
2018-10-11T06:14:15.164Z,10.53
2018-10-11T06:16:44.237Z,10.57
2018-10-11T06:19:14.539Z,10.63
2018-10-11T06:21:43.683Z,10.63
2018-10-11T06:24:12.476Z,10.67
2018-10-11T06:26:41.443Z,10.70
2018-10-11T06:29:10.542Z,10.71
2018-10-11T06:31:39.334Z,10.81
2018-10-11T06:34:08.041Z,10.84
2018-10-11T06:36:36.986Z,10.89
2018-10-11T06:39:08.321Z,10.88
2018-10-11T06:41:38.073Z,10.94
2018-10-11T06:44:37.726Z,11.01
2018-10-11T06:47:06.722Z,11.04
2018-10-11T06:49:35.493Z,11.10
2018-10-11T06:52:04.231Z,11.17
2018-10-11T06:54:33.021Z,11.21
2018-10-11T06:57:01.777Z,11.33
2018-10-11T06:59:30.496Z,11.42
2018-10-11T07:01:59.356Z,11.48
2018-10-11T07:04:28.112Z,11.54
2018-10-11T07:06:56.834Z,11.61
2018-10-11T07:09:25.630Z,11.69
2018-10-11T07:11:54.284Z,11.74
2018-10-11T07:14:22.941Z,11.82
2018-10-11T07:16:51.631Z,11.91
2018-10-11T07:19:20.392Z,12.00
2018-10-11T07:21:49.068Z,12.17
2018-10-11T07:24:17.715Z,12.25
2018-10-11T07:26:46.369Z,12.33
2018-10-11T07:29:15.058Z,12.39
2018-10-11T07:31:43.679Z,12.52
2018-10-11T07:34:12.317Z,12.65
2018-10-11T07:36:41.709Z,12.77
2018-10-11T07:39:12.341Z,12.84
2018-10-11T07:41:41.162Z,13.01
2018-10-11T07:44:10.060Z,13.15
2018-10-11T07:46:39.132Z,13.27
2018-10-11T07:49:08.535Z,13.38
2018-10-11T07:51:37.608Z,13.58
2018-10-11T07:54:06.250Z,13.71
2018-10-11T07:56:34.911Z,13.86
2018-10-11T07:59:03.559Z,14.03
2018-10-11T08:01:32.347Z,14.06
2018-10-11T08:04:00.985Z,14.18
2018-10-11T08:06:29.696Z,14.27
2018-10-11T08:08:58.385Z,14.42
2018-10-11T08:11:27.205Z,14.52
2018-10-11T08:13:55.876Z,14.50
2018-10-11T08:16:24.599Z,14.62
2018-10-11T08:18:53.324Z,14.80
2018-10-11T08:21:22.058Z,14.98
2018-10-11T08:23:50.745Z,15.07
2018-10-11T08:26:19.709Z,15.24
2018-10-11T08:28:47.980Z,15.35
2018-10-11T08:31:16.605Z,15.48
2018-10-11T08:33:45.261Z,15.55
2018-10-11T17:50:52.505Z,14.75
2018-10-11T17:53:21.409Z,14.80
2018-10-11T17:55:52.798Z,15.09
2018-10-11T17:58:21.513Z,15.13
2018-10-11T18:00:50.163Z,15.18
2018-10-11T18:03:19.177Z,15.20
2018-10-11T18:06:08.629Z,15.24
2018-10-11T18:08:37.479Z,15.29
2018-10-11T18:11:06.413Z,15.31
2018-10-11T18:15:42.413Z,15.22
2018-10-11T18:18:11.074Z,15.24
2018-10-11T18:20:39.748Z,15.24
2018-10-11T18:23:08.486Z,15.26
2018-10-11T18:25:37.164Z,15.28
2018-10-11T18:28:05.933Z,15.23
2018-10-11T18:30:35.843Z,15.22
2018-10-11T18:33:04.519Z,15.24
2018-10-11T18:35:33.350Z,15.22
2018-10-11T18:38:02.048Z,15.28
2018-10-11T18:40:30.763Z,15.25
2018-10-11T18:42:59.440Z,15.22
2018-10-11T18:45:28.376Z,15.28
2018-10-11T18:47:57.120Z,15.25
2018-10-11T18:50:25.825Z,15.33
2018-10-11T18:52:54.510Z,15.32
2018-10-11T18:55:23.397Z,15.25
2018-10-11T18:57:52.168Z,15.25
2018-10-11T19:00:22.748Z,15.19
2018-10-11T19:02:51.459Z,15.30
2018-10-11T19:05:20.136Z,15.24
2018-10-11T19:07:49.478Z,15.22
2018-10-11T19:10:18.301Z,15.25
2018-10-11T19:12:47.161Z,15.13
2018-10-11T19:16:20.547Z,15.13
2018-10-11T19:20:45.181Z,15.01
2018-10-11T19:28:05.565Z,15.06
2018-10-11T19:30:34.616Z,15.13
2018-10-11T19:33:03.253Z,15.15
2018-10-11T19:35:31.949Z,15.13
2018-10-11T19:38:01.110Z,15.13
2018-10-11T19:40:29.728Z,15.04
2018-10-11T19:42:58.340Z,15.01
2018-10-11T19:45:27.070Z,15.04
2018-10-11T19:47:55.709Z,15.04
2018-10-11T19:50:24.454Z,15.03
2018-10-11T19:52:53.153Z,15.06
2018-10-11T19:55:21.885Z,14.95
2018-10-11T19:57:50.708Z,14.82
2018-10-11T20:00:19.478Z,14.84
2018-10-11T20:02:48.110Z,14.89
2018-10-11T20:05:16.770Z,14.94
2018-10-11T20:07:45.393Z,14.93
2018-10-11T20:10:14.507Z,14.86
2018-10-11T20:12:43.153Z,14.96
2018-10-11T20:15:11.861Z,14.91
2018-10-11T20:17:40.562Z,14.94
2018-10-11T20:20:09.218Z,14.96
2018-10-11T20:22:37.887Z,15.00
2018-10-11T20:25:06.925Z,14.99
2018-10-11T20:27:35.575Z,14.98
2018-10-11T20:30:06.010Z,15.04
2018-10-11T20:32:34.637Z,14.98
2018-10-11T20:35:03.285Z,14.99
2018-10-11T20:37:31.909Z,15.03
2018-10-11T20:40:01.227Z,14.96
2018-10-11T20:42:29.919Z,15.01
2018-10-11T20:44:58.606Z,14.96
2018-10-11T20:47:27.231Z,15.02
2018-10-11T20:49:55.909Z,15.00
2018-10-11T20:52:24.635Z,15.01
2018-10-11T20:54:53.517Z,14.97
2018-10-11T20:57:22.303Z,14.93
2018-10-11T20:59:51.923Z,14.88
2018-10-11T21:02:20.600Z,14.87
2018-10-11T21:04:49.288Z,14.84
2018-10-11T21:07:17.978Z,14.82
2018-10-11T21:09:46.700Z,14.80
2018-10-11T21:12:15.493Z,14.75
2018-10-11T21:14:44.179Z,14.79
2018-10-11T21:17:12.928Z,14.78
2018-10-11T21:19:41.612Z,14.75
2018-10-11T21:22:10.261Z,14.71
2018-10-11T21:24:39.011Z,14.71
2018-10-11T21:27:07.710Z,14.67
2018-10-11T21:29:36.567Z,14.66
2018-10-11T21:32:05.249Z,14.70
2018-10-11T21:34:33.999Z,14.68
2018-10-11T21:37:02.709Z,14.73
2018-10-11T21:39:31.475Z,14.74
2018-10-11T21:42:00.113Z,14.63
2018-10-11T21:44:29.021Z,14.54
2018-10-11T21:46:57.691Z,14.53
2018-10-11T21:49:26.429Z,14.48
2018-10-11T21:51:55.207Z,14.47
2018-10-11T21:54:23.905Z,14.31
2018-10-11T21:56:52.684Z,14.26
2018-10-11T21:59:21.404Z,14.22
2018-10-11T22:01:50.109Z,14.19
2018-10-11T22:04:18.929Z,14.13
2018-10-11T22:06:47.612Z,14.15
2018-10-11T22:09:16.343Z,14.16
2018-10-11T22:11:45.122Z,14.09
2018-10-11T22:14:13.788Z,14.03
2018-10-11T22:16:42.520Z,13.99
2018-10-11T22:19:11.199Z,13.93
2018-10-11T22:21:39.925Z,13.94
2018-10-11T22:24:09.160Z,13.98
2018-10-11T22:26:37.829Z,14.00
2018-10-11T22:29:06.528Z,14.05
2018-10-11T22:31:35.200Z,14.00
2018-10-11T22:34:03.918Z,14.02
2018-10-11T22:36:32.701Z,14.00
2018-10-11T22:39:01.349Z,14.01
2018-10-11T22:41:30.173Z,13.94
2018-10-11T22:43:58.741Z,13.94
2018-10-11T22:46:27.591Z,13.94
2018-10-11T22:48:56.299Z,13.90
2018-10-11T22:51:24.972Z,13.85
2018-10-11T22:53:53.612Z,13.82
2018-10-11T22:56:22.656Z,13.78
2018-10-11T22:58:52.391Z,13.67
2018-10-11T23:01:21.927Z,13.54
2018-10-11T23:03:50.624Z,13.49
2018-10-11T23:06:19.272Z,13.54
2018-10-11T23:08:47.911Z,13.55
2018-10-11T23:11:16.746Z,13.52
2018-10-11T23:13:45.354Z,13.45
2018-10-11T23:16:44.711Z,13.28
2018-10-11T23:19:13.359Z,13.14
2018-10-11T23:21:41.990Z,13.10
2018-10-11T23:24:10.633Z,13.14
2018-10-11T23:26:39.300Z,13.19
2018-10-11T23:29:07.937Z,13.17
2018-10-11T23:31:36.637Z,13.07
2018-10-11T23:34:05.305Z,13.00
2018-10-11T23:36:33.948Z,12.86
2018-10-11T23:39:02.579Z,12.94
2018-10-11T23:41:31.164Z,13.00
2018-10-11T23:43:59.783Z,13.02
2018-10-11T23:46:28.465Z,12.84
2018-10-11T23:48:57.126Z,12.88
2018-10-11T23:51:25.776Z,12.86
2018-10-11T23:53:54.444Z,12.85
2018-10-11T23:56:23.096Z,12.88
2018-10-11T23:58:51.711Z,12.78
